createdAt,value
2024-02-29T00:00:27.826Z,101506.63
2024-02-29T00:03:31.840Z,101506.59
2024-02-29T00:06:35.767Z,101499.47
2024-02-29T00:09:38.853Z,101504.97
2024-02-29T00:12:41.775Z,101499.66
2024-02-29T00:15:44.493Z,101505.84
2024-02-29T00:18:49.572Z,101501.56
2024-02-29T00:21:52.446Z,101492.66
2024-02-29T00:24:55.180Z,101494.53
2024-02-29T00:27:58.958Z,101492.00
2024-02-29T00:31:01.729Z,101490.44
2024-02-29T00:34:05.737Z,101491.34
2024-02-29T00:37:08.476Z,101487.81
2024-02-29T00:40:11.942Z,101482.75
2024-02-29T00:43:14.683Z,101474.75
2024-02-29T00:46:17.394Z,101479.31
2024-02-29T00:49:21.397Z,101475.66
2024-02-29T00:52:24.012Z,101466.94
2024-02-29T00:55:26.702Z,101469.63
2024-02-29T00:58:29.613Z,101460.78
2024-02-29T01:01:32.328Z,101459.09
2024-02-29T01:04:36.355Z,101453.88
2024-02-29T01:07:41.631Z,101455.06
2024-02-29T01:10:44.338Z,101444.41
2024-02-29T01:13:47.046Z,101443.72
2024-02-29T01:16:49.764Z,101438.34
2024-02-29T01:19:53.794Z,101435.88
2024-02-29T01:22:56.461Z,101433.44
2024-02-29T01:25:59.111Z,101438.56
2024-02-29T01:29:01.740Z,101430.81
2024-02-29T01:32:12.354Z,101422.06
2024-02-29T01:35:22.846Z,101415.84
2024-02-29T01:38:25.487Z,101413.34
2024-02-29T01:41:28.138Z,101405.44
2024-02-29T01:44:30.945Z,101394.56
2024-02-29T01:47:33.619Z,101397.09
2024-02-29T01:50:39.232Z,101400.44
2024-02-29T01:53:42.047Z,101392.75
2024-02-29T01:56:44.853Z,101383.72
2024-02-29T01:59:49.219Z,101387.25
2024-02-29T02:02:52.418Z,101393.31
2024-02-29T02:05:56.460Z,101381.84
2024-02-29T02:08:59.345Z,101374.88
2024-02-29T02:12:01.993Z,101368.69
2024-02-29T02:15:04.874Z,101366.91
2024-02-29T02:18:07.763Z,101361.88
2024-02-29T02:21:11.929Z,101351.25
2024-02-29T02:24:14.737Z,101351.28
2024-02-29T02:27:17.372Z,101341.50
2024-02-29T02:30:19.996Z,101338.06
2024-02-29T02:33:22.930Z,101331.31
2024-02-29T02:36:26.923Z,101345.16
2024-02-29T02:39:29.657Z,101336.47
2024-02-29T02:42:32.416Z,101334.66
2024-02-29T02:45:35.088Z,101336.34
2024-02-29T02:48:37.808Z,101326.69
2024-02-29T02:51:41.828Z,101317.25
2024-02-29T02:54:44.494Z,101306.56
2024-02-29T02:57:47.180Z,101299.34
2024-02-29T03:00:50.128Z,101297.56
2024-02-29T03:03:53.421Z,101290.59
2024-02-29T03:06:57.531Z,101293.22
2024-02-29T03:10:00.511Z,101291.56
2024-02-29T03:13:03.464Z,101285.25
2024-02-29T03:16:06.456Z,101285.41
2024-02-29T03:19:09.883Z,101280.22
2024-02-29T03:22:14.657Z,101272.38
2024-02-29T03:25:17.710Z,101272.38
2024-02-29T03:28:20.389Z,101268.06
2024-02-29T03:31:23.030Z,101267.34
2024-02-29T03:34:25.741Z,101260.28
2024-02-29T03:37:29.762Z,101262.00
2024-02-29T03:40:32.443Z,101266.47
2024-02-29T03:43:35.650Z,101255.91
2024-02-29T03:46:38.478Z,101241.16
2024-02-29T03:49:41.134Z,101241.91
2024-02-29T03:52:45.162Z,101246.28
2024-02-29T03:55:49.168Z,101242.81
2024-02-29T03:58:53.318Z,101237.50
2024-02-29T04:01:57.117Z,101231.53
2024-02-29T04:04:59.795Z,101231.44
2024-02-29T04:08:04.934Z,101222.81
2024-02-29T04:11:07.989Z,101220.13
2024-02-29T04:14:10.941Z,101214.91
2024-02-29T04:17:13.677Z,101213.03
2024-02-29T04:20:16.442Z,101208.75
2024-02-29T04:23:20.422Z,101208.69
2024-02-29T04:26:25.129Z,101200.88
2024-02-29T04:29:27.773Z,101202.56
2024-02-29T04:32:30.404Z,101190.22
2024-02-29T04:35:33.054Z,101187.81
2024-02-29T04:38:37.071Z,101178.03
2024-02-29T04:41:39.705Z,101180.72
2024-02-29T04:44:42.373Z,101182.56
2024-02-29T04:47:45.079Z,101173.72
2024-02-29T04:50:47.730Z,101163.19
2024-02-29T04:53:51.704Z,101174.91
2024-02-29T04:56:54.337Z,101172.22
2024-02-29T04:59:58.028Z,101177.44
2024-02-29T05:03:00.817Z,101168.69
2024-02-29T05:06:04.582Z,101160.66
2024-02-29T05:09:08.579Z,101159.69
2024-02-29T05:12:11.195Z,101148.28
2024-02-29T05:15:13.835Z,101156.16
2024-02-29T05:18:16.542Z,101156.16
2024-02-29T05:21:19.188Z,101154.50
2024-02-29T05:24:23.207Z,101164.28
2024-02-29T05:27:30.480Z,101151.22
2024-02-29T05:30:33.394Z,101145.03
2024-02-29T05:33:36.101Z,101152.00
2024-02-29T05:36:38.781Z,101151.16
2024-02-29T05:39:43.490Z,101141.41
2024-02-29T05:42:46.201Z,101142.34
2024-02-29T05:45:48.949Z,101132.63
2024-02-29T05:48:51.638Z,101127.47
2024-02-29T05:51:54.322Z,101128.38
2024-02-29T05:54:58.678Z,101125.72
2024-02-29T05:58:01.601Z,101131.97
2024-02-29T06:01:04.654Z,101131.09
2024-02-29T06:04:07.576Z,101125.00
2024-02-29T06:07:10.321Z,101124.25
2024-02-29T06:10:14.598Z,101115.19
2024-02-29T06:13:17.791Z,101116.19
2024-02-29T06:16:21.749Z,101118.66
2024-02-29T06:19:24.539Z,101123.09
2024-02-29T06:22:27.257Z,101121.97
2024-02-29T06:25:31.277Z,101116.03
2024-02-29T06:28:33.911Z,101117.53
2024-02-29T06:31:36.564Z,101120.25
2024-02-29T06:34:39.214Z,101114.22
2024-02-29T06:37:43.559Z,101122.88
2024-02-29T06:40:48.016Z,101116.69
2024-02-29T06:43:50.674Z,101113.47
2024-02-29T06:46:53.380Z,101115.72
2024-02-29T06:49:56.009Z,101113.13
2024-02-29T06:52:59.330Z,101112.00
2024-02-29T06:56:05.102Z,101117.50
2024-02-29T06:59:07.798Z,101114.47
2024-02-29T07:02:10.464Z,101111.91
2024-02-29T07:05:13.452Z,101101.31
2024-02-29T07:08:16.105Z,101099.34
2024-02-29T07:11:20.672Z,101099.31
2024-02-29T07:14:23.746Z,101098.38
2024-02-29T07:17:26.472Z,101089.81
2024-02-29T07:20:29.300Z,101099.22
2024-02-29T07:23:32.604Z,101095.50
2024-02-29T07:26:41.374Z,101085.09
2024-02-29T07:29:44.289Z,101095.50
2024-02-29T07:32:46.964Z,101085.94
2024-02-29T07:35:49.761Z,101094.34
2024-02-29T07:38:52.420Z,101086.25
2024-02-29T07:41:56.480Z,101084.19
2024-02-29T07:44:59.209Z,101082.72
2024-02-29T07:48:04.038Z,101075.50
2024-02-29T07:51:06.977Z,101070.00
2024-02-29T07:54:10.290Z,101064.72
2024-02-29T07:57:14.765Z,101067.97
2024-02-29T08:00:18.928Z,101059.97
2024-02-29T08:03:21.573Z,101059.28
2024-02-29T08:06:24.382Z,101054.50
2024-02-29T08:09:27.106Z,101053.25
2024-02-29T08:12:31.117Z,101053.97
2024-02-29T08:15:35.105Z,101049.56
2024-02-29T08:18:39.166Z,101049.16
2024-02-29T08:21:41.883Z,101052.50
2024-02-29T08:24:44.549Z,101056.34
2024-02-29T08:27:48.576Z,101047.91
2024-02-29T08:30:51.473Z,101047.00
2024-02-29T08:33:54.165Z,101049.25
2024-02-29T08:36:56.886Z,101048.19
2024-02-29T08:39:59.576Z,101043.00
2024-02-29T08:43:03.961Z,101036.53
2024-02-29T08:46:06.698Z,101041.97
2024-02-29T08:49:09.341Z,101030.75
2024-02-29T08:52:12.137Z,101020.34
2024-02-29T08:55:15.037Z,101032.47
2024-02-29T08:58:19.122Z,101030.56
2024-02-29T09:01:22.227Z,101021.50
2024-02-29T09:04:25.401Z,101021.28
2024-02-29T09:07:28.566Z,101021.56
2024-02-29T09:10:31.383Z,101014.13
2024-02-29T09:13:36.241Z,101018.66
2024-02-29T09:16:39.513Z,101007.00
2024-02-29T09:19:42.487Z,101005.34
2024-02-29T09:22:45.110Z,101003.84
2024-02-29T09:25:47.756Z,100998.53
2024-02-29T09:28:51.736Z,101001.28
2024-02-29T09:31:54.377Z,100998.38
2024-02-29T09:34:57.008Z,101001.84
2024-02-29T09:37:59.694Z,100984.84
2024-02-29T09:41:12.631Z,100988.06
2024-02-29T09:44:27.545Z,100982.44
2024-02-29T09:47:33.191Z,100979.94
2024-02-29T09:50:35.901Z,100975.03
2024-02-29T09:53:38.981Z,100978.53
2024-02-29T09:56:42.088Z,100969.63
2024-02-29T09:59:46.182Z,100957.63
2024-02-29T10:02:51.558Z,100949.31
2024-02-29T10:05:55.714Z,100951.59
2024-02-29T10:08:58.629Z,100946.78
2024-02-29T10:12:03.003Z,100948.47
2024-02-29T10:15:11.213Z,100948.81
2024-02-29T10:18:13.963Z,100949.31
2024-02-29T10:21:16.758Z,100944.84
2024-02-29T10:24:20.512Z,100946.38
2024-02-29T10:27:23.518Z,100943.94
2024-02-29T10:30:29.535Z,100939.28
2024-02-29T10:33:34.103Z,100941.53
2024-02-29T10:36:36.791Z,100927.88
2024-02-29T10:39:41.602Z,100925.38
2024-02-29T10:42:44.466Z,100926.91
2024-02-29T10:45:52.240Z,100931.84
2024-02-29T10:49:01.232Z,100921.69
2024-02-29T10:52:11.600Z,100909.84
2024-02-29T10:55:20.290Z,100911.84
2024-02-29T10:58:26.445Z,100909.06
2024-02-29T11:01:30.954Z,100910.13
2024-02-29T11:04:33.969Z,100900.38
2024-02-29T11:07:36.803Z,100897.06
2024-02-29T11:10:39.671Z,100895.78
2024-02-29T11:13:43.028Z,100894.63
2024-02-29T11:16:47.940Z,100889.03
2024-02-29T11:19:58.605Z,100886.94
2024-02-29T11:23:10.626Z,100882.78
2024-02-29T11:26:14.294Z,100885.50
2024-02-29T11:29:17.848Z,100877.72
2024-02-29T11:32:30.198Z,100868.56
2024-02-29T11:35:34.161Z,100877.47
2024-02-29T11:38:40.368Z,100857.09
2024-02-29T11:41:43.597Z,100861.53
2024-02-29T11:44:48.316Z,100859.47
2024-02-29T11:47:52.891Z,100850.72
2024-02-29T11:50:55.585Z,100846.25
2024-02-29T11:53:59.679Z,100838.75
2024-02-29T11:57:02.575Z,100835.53
2024-02-29T12:00:07.046Z,100835.34
2024-02-29T12:03:11.227Z,100837.75
2024-02-29T12:06:13.969Z,100823.47
2024-02-29T12:09:16.846Z,100823.84
2024-02-29T12:12:22.452Z,100816.91
2024-02-29T12:15:25.225Z,100814.75
2024-02-29T12:18:29.266Z,100805.59
2024-02-29T12:21:31.946Z,100790.03
2024-02-29T12:24:35.200Z,100789.91
2024-02-29T12:27:37.862Z,100785.47
2024-02-29T12:30:40.748Z,100781.19
2024-02-29T12:33:45.566Z,100785.09
2024-02-29T12:36:48.819Z,100780.72
2024-02-29T12:39:55.677Z,100770.13
2024-02-29T12:42:58.876Z,100769.13
2024-02-29T12:46:01.734Z,100769.94
2024-02-29T12:49:05.808Z,100770.84
2024-02-29T12:52:08.490Z,100766.50
2024-02-29T12:55:11.607Z,100755.38
2024-02-29T12:58:14.401Z,100751.03
2024-02-29T13:01:17.392Z,100759.97
2024-02-29T13:04:21.670Z,100748.97
2024-02-29T13:07:24.438Z,100748.34
2024-02-29T13:10:27.455Z,100742.88
2024-02-29T13:13:30.335Z,100737.97
2024-02-29T13:16:33.172Z,100731.66
2024-02-29T13:19:37.188Z,100730.97
2024-02-29T13:22:40.730Z,100720.22
2024-02-29T13:25:43.405Z,100720.91
2024-02-29T13:28:47.404Z,100716.69
2024-02-29T13:31:50.327Z,100715.59
2024-02-29T13:34:54.324Z,100707.06
2024-02-29T13:37:56.954Z,100714.22
2024-02-29T13:40:59.615Z,100710.03
2024-02-29T13:44:03.346Z,100707.94
2024-02-29T13:47:06.617Z,100704.06
2024-02-29T13:50:11.326Z,100694.59
2024-02-29T13:53:14.469Z,100688.72
2024-02-29T13:56:19.225Z,100694.97
2024-02-29T13:59:22.265Z,100692.78
2024-02-29T14:02:24.908Z,100686.09
2024-02-29T14:05:28.892Z,100683.94
2024-02-29T14:08:31.729Z,100682.59
2024-02-29T14:11:34.598Z,100676.31
2024-02-29T14:14:37.901Z,100662.66
2024-02-29T14:17:41.114Z,100671.81
2024-02-29T14:20:45.164Z,100667.69
2024-02-29T14:23:48.081Z,100649.94
2024-02-29T14:26:52.687Z,100649.78
2024-02-29T14:29:55.365Z,100642.31
2024-02-29T14:32:58.777Z,100642.09
2024-02-29T14:36:02.926Z,100642.34
2024-02-29T14:39:12.483Z,100639.63
2024-02-29T14:42:15.521Z,100629.47
2024-02-29T14:45:18.226Z,100630.72
2024-02-29T14:48:21.129Z,100618.47
2024-02-29T14:51:25.122Z,100620.38
2024-02-29T14:54:27.775Z,100608.53
2024-02-29T14:57:30.439Z,100609.00
2024-02-29T15:00:33.066Z,100608.63
2024-02-29T15:03:36.931Z,100612.31
2024-02-29T15:06:41.992Z,100612.84
2024-02-29T15:09:44.779Z,100605.03
2024-02-29T15:12:47.458Z,100597.88
2024-02-29T15:15:50.915Z,100604.56
2024-02-29T15:18:53.951Z,100592.97
2024-02-29T15:21:57.963Z,100590.78
2024-02-29T15:25:00.830Z,100586.81
2024-02-29T15:28:05.495Z,100582.25
2024-02-29T15:31:08.695Z,100577.44
2024-02-29T15:34:11.359Z,100577.44
2024-02-29T15:37:15.553Z,100578.75
2024-02-29T15:40:18.369Z,100573.41
2024-02-29T15:43:21.147Z,100573.63
2024-02-29T15:46:23.958Z,100569.88
2024-02-29T15:49:26.707Z,100569.84
2024-02-29T15:52:30.823Z,100564.34
2024-02-29T15:55:33.625Z,100563.97
2024-02-29T15:58:36.431Z,100559.22
2024-02-29T16:01:39.142Z,100562.00
2024-02-29T16:04:41.868Z,100554.13
2024-02-29T16:07:45.933Z,100556.41
2024-02-29T16:10:48.624Z,100547.41
2024-02-29T16:13:51.415Z,100550.50
2024-02-29T16:16:54.446Z,100551.88
2024-02-29T16:19:57.210Z,100541.59
2024-02-29T16:23:01.436Z,100543.50
2024-02-29T16:26:04.511Z,100549.16
2024-02-29T16:29:07.152Z,100547.09
2024-02-29T16:32:11.626Z,100548.63
2024-02-29T16:35:14.387Z,100544.16
2024-02-29T16:38:18.569Z,100538.38
2024-02-29T16:41:21.862Z,100542.91
2024-02-29T16:44:27.465Z,100535.91
2024-02-29T16:47:30.280Z,100542.31
2024-02-29T16:50:32.950Z,100538.38
2024-02-29T16:53:36.956Z,100542.03
2024-02-29T16:56:40.498Z,100527.44
2024-02-29T16:59:44.189Z,100542.63
2024-02-29T17:02:46.864Z,100531.81
2024-02-29T17:05:49.516Z,100532.66
2024-02-29T17:08:53.505Z,100532.88
2024-02-29T17:11:56.140Z,100525.75
2024-02-29T17:14:58.762Z,100525.75
2024-02-29T17:18:01.568Z,100519.81
2024-02-29T17:21:04.531Z,100516.09
2024-02-29T17:24:08.552Z,100522.44
2024-02-29T17:27:11.236Z,100518.88
2024-02-29T17:30:16.497Z,100520.56
2024-02-29T17:33:19.161Z,100518.19
2024-02-29T17:36:21.798Z,100508.28
2024-02-29T17:39:25.894Z,100517.25
2024-02-29T17:42:29.451Z,100510.16
2024-02-29T17:45:32.094Z,100513.94
2024-02-29T17:48:35.004Z,100515.75
2024-02-29T17:51:38.276Z,100510.88
2024-02-29T17:54:42.854Z,100516.91
2024-02-29T17:57:46.877Z,100512.25
2024-02-29T18:00:49.873Z,100514.72
2024-02-29T18:03:52.596Z,100514.03
2024-02-29T18:06:55.405Z,100511.72
2024-02-29T18:10:01.081Z,100509.34
2024-02-29T18:13:04.012Z,100506.13
2024-02-29T18:16:07.200Z,100500.88
2024-02-29T18:19:10.093Z,100502.75
2024-02-29T18:22:12.811Z,100496.66
2024-02-29T18:25:18.749Z,100504.84
2024-02-29T18:28:22.145Z,100496.72
2024-02-29T18:31:24.993Z,100488.78
2024-02-29T18:34:27.840Z,100492.06
2024-02-29T18:37:30.533Z,100498.69
2024-02-29T18:40:34.592Z,100489.50
2024-02-29T18:43:37.224Z,100497.97
2024-02-29T18:46:40.987Z,100495.69
2024-02-29T18:49:43.775Z,100495.47
2024-02-29T18:52:46.410Z,100494.53
2024-02-29T18:55:50.876Z,100488.00
2024-02-29T18:58:54.069Z,100488.22
2024-02-29T19:01:57.025Z,100490.09
2024-02-29T19:04:59.775Z,100490.78
2024-02-29T19:08:02.806Z,100482.84
2024-02-29T19:11:07.032Z,100475.69
2024-02-29T19:14:09.919Z,100483.91
2024-02-29T19:17:13.246Z,100476.88
2024-02-29T19:20:16.249Z,100484.50
2024-02-29T19:23:18.892Z,100472.53
2024-02-29T19:26:23.964Z,100472.06
2024-02-29T19:29:27.485Z,100469.31
2024-02-29T19:32:30.233Z,100464.97
2024-02-29T19:35:34.881Z,100457.28
2024-02-29T19:38:37.534Z,100463.13
2024-02-29T19:41:43.806Z,100458.31
2024-02-29T19:44:46.501Z,100453.19
2024-02-29T19:47:50.941Z,100459.16
2024-02-29T19:50:54.701Z,100452.72
2024-02-29T19:53:57.340Z,100444.03
2024-02-29T19:57:01.302Z,100442.72
2024-02-29T20:00:07.163Z,100444.69
2024-02-29T20:03:09.812Z,100434.50
2024-02-29T20:06:12.486Z,100438.41
2024-02-29T20:09:16.259Z,100432.66
2024-02-29T20:12:20.365Z,100430.97
2024-02-29T20:15:23.070Z,100427.06
2024-02-29T20:18:28.179Z,100426.88
2024-02-29T20:21:31.341Z,100438.22
2024-02-29T20:24:34.009Z,100426.81
2024-02-29T20:27:37.986Z,100429.44
2024-02-29T20:30:40.715Z,100423.78
2024-02-29T20:33:43.967Z,100424.31
2024-02-29T20:36:47.572Z,100420.97
2024-02-29T20:39:50.289Z,100415.94
2024-02-29T20:42:54.360Z,100417.09
2024-02-29T20:45:57.026Z,100413.31
2024-02-29T20:48:59.739Z,100424.09
2024-02-29T20:52:02.428Z,100405.78
2024-02-29T20:55:05.791Z,100405.91
2024-02-29T20:58:09.886Z,100399.91
2024-02-29T21:01:12.690Z,100389.06
2024-02-29T21:04:15.429Z,100387.78
2024-02-29T21:07:18.529Z,100386.09
2024-02-29T21:10:21.913Z,100383.44
2024-02-29T21:13:27.511Z,100383.09
2024-02-29T21:16:32.470Z,100379.34
2024-02-29T21:19:35.292Z,100374.03
2024-02-29T21:22:38.253Z,100373.00
2024-02-29T21:25:40.899Z,100374.03
2024-02-29T21:28:47.421Z,100375.47
2024-02-29T21:31:50.043Z,100367.03
2024-02-29T21:34:52.678Z,100362.25
2024-02-29T21:37:55.367Z,100364.94
2024-02-29T21:40:58.016Z,100352.19
2024-02-29T21:44:02.007Z,100353.25
2024-02-29T21:47:05.111Z,100340.78
2024-02-29T21:50:09.449Z,100343.38
2024-02-29T21:53:12.202Z,100347.47
2024-02-29T21:56:15.086Z,100342.19
2024-02-29T21:59:19.171Z,100334.44
2024-02-29T22:02:22.119Z,100336.41
2024-02-29T22:05:24.820Z,100325.72
2024-02-29T22:08:27.484Z,100332.84
2024-02-29T22:11:30.194Z,100327.94
2024-02-29T22:14:34.200Z,100325.75
2024-02-29T22:17:36.860Z,100327.19
2024-02-29T22:20:39.572Z,100321.41
2024-02-29T22:23:42.444Z,100322.91
2024-02-29T22:26:45.107Z,100314.66
2024-02-29T22:29:49.127Z,100312.78
2024-02-29T22:32:51.770Z,100311.88
2024-02-29T22:35:54.432Z,100313.13
2024-02-29T22:38:57.057Z,100307.53
2024-02-29T22:42:02.315Z,100307.22
2024-02-29T22:45:09.902Z,100303.19
2024-02-29T22:48:12.601Z,100301.13
2024-02-29T22:51:15.382Z,100294.00
2024-02-29T22:54:18.188Z,100297.16
2024-02-29T22:57:20.829Z,100297.16
2024-02-29T23:00:31.318Z,100288.38
2024-02-29T23:03:34.093Z,100291.84
2024-02-29T23:06:36.742Z,100291.38
2024-02-29T23:09:39.588Z,100276.47
2024-02-29T23:12:42.233Z,100279.94
2024-02-29T23:15:46.263Z,100276.72
2024-02-29T23:18:49.044Z,100275.13
2024-02-29T23:21:51.719Z,100261.34
2024-02-29T23:24:54.584Z,100271.81
2024-02-29T23:27:57.428Z,100263.91
2024-02-29T23:31:01.729Z,100260.09
2024-02-29T23:34:04.846Z,100257.78
2024-02-29T23:37:08.338Z,100247.22
2024-02-29T23:40:11.643Z,100250.00
2024-02-29T23:43:14.337Z,100250.78
2024-02-29T23:46:18.382Z,100250.69
2024-02-29T23:49:21.301Z,100249.22
2024-02-29T23:52:24.062Z,100239.78
2024-02-29T23:55:27.370Z,100237.44
2024-02-29T23:58:30.541Z,100244.50
